createdAt,value
2019-05-29T00:02:03.033Z,5.60
2019-05-29T00:04:35.828Z,5.67
2019-05-29T00:07:08.769Z,5.70
2019-05-29T00:09:42.570Z,5.50
2019-05-29T00:12:20.112Z,5.23
2019-05-29T00:14:52.311Z,5.20
2019-05-29T00:17:25.172Z,5.50
2019-05-29T00:19:57.910Z,5.60
2019-05-29T00:22:31.648Z,5.53
2019-05-29T00:25:04.805Z,5.70
2019-05-29T00:27:39.084Z,5.53
2019-05-29T00:30:13.485Z,5.70
2019-05-29T00:32:48.502Z,6.20
2019-05-29T00:35:22.908Z,6.40
2019-05-29T00:37:55.857Z,6.00
2019-05-29T00:40:28.678Z,5.90
2019-05-29T00:43:01.371Z,5.67
2019-05-29T00:45:35.806Z,5.23
2019-05-29T00:48:09.571Z,6.00
2019-05-29T00:50:42.441Z,5.80
2019-05-29T00:53:16.285Z,6.20
2019-05-29T00:55:49.208Z,6.03
2019-05-29T00:58:21.890Z,6.03
2019-05-29T01:00:54.508Z,5.83
2019-05-29T01:03:28.182Z,5.83
2019-05-29T01:06:00.922Z,6.07
2019-05-29T01:08:33.582Z,6.40
2019-05-29T01:11:07.309Z,5.97
2019-05-29T01:13:40.190Z,6.00
2019-05-29T01:16:15.364Z,6.53
2019-05-29T01:18:50.111Z,6.40
2019-05-29T01:21:23.163Z,6.77
2019-05-29T01:23:55.817Z,6.13
2019-05-29T01:26:28.474Z,6.30
2019-05-29T01:29:01.242Z,6.50
2019-05-29T01:31:35.740Z,6.73
2019-05-29T01:34:10.119Z,6.10
2019-05-29T01:36:43.107Z,6.57
2019-05-29T01:39:15.802Z,7.07
2019-05-29T01:41:48.467Z,6.90
2019-05-29T01:44:21.469Z,6.60
2019-05-29T01:46:56.140Z,6.77
2019-05-29T01:49:38.105Z,6.50
2019-05-29T01:52:10.742Z,7.20
2019-05-29T01:54:43.389Z,7.07
2019-05-29T01:57:18.122Z,6.77
2019-05-29T01:59:50.760Z,7.20
2019-05-29T02:02:23.934Z,6.63
2019-05-29T02:04:56.610Z,7.07
2019-05-29T02:07:30.799Z,7.07
2019-05-29T02:10:05.213Z,7.37
2019-05-29T02:12:37.835Z,7.33
2019-05-29T02:15:24.844Z,7.27
2019-05-29T02:17:46.286Z,7.07
2019-05-29T02:20:19.458Z,6.77
2019-05-29T02:22:52.078Z,6.23
2019-05-29T02:25:26.380Z,7.33
2019-05-29T02:28:01.059Z,8.23
2019-05-29T02:30:33.893Z,8.03
2019-05-29T02:33:09.436Z,8.17
2019-05-29T02:35:42.082Z,8.33
2019-05-29T02:38:14.828Z,7.97
2019-05-29T02:40:47.380Z,8.47
2019-05-29T02:43:21.372Z,7.97
2019-05-29T02:45:55.353Z,9.03
2019-05-29T02:48:30.130Z,9.10
2019-05-29T02:51:03.820Z,9.47
2019-05-29T02:53:36.496Z,8.80
2019-05-29T02:56:09.239Z,9.13
2019-05-29T02:58:44.065Z,9.23
2019-05-29T03:01:18.744Z,8.87
2019-05-29T03:03:51.698Z,7.70
2019-05-29T03:06:26.205Z,7.80
2019-05-29T03:08:59.185Z,6.83
2019-05-29T03:11:33.467Z,7.70
2019-05-29T03:14:06.602Z,8.07
2019-05-29T03:16:39.531Z,8.30
2019-05-29T03:19:12.366Z,9.17
2019-05-29T03:21:45.054Z,9.47
2019-05-29T03:24:17.755Z,9.57
2019-05-29T03:26:50.480Z,9.67
2019-05-29T03:29:23.457Z,10.47
2019-05-29T03:31:56.120Z,10.43
2019-05-29T03:34:34.927Z,11.13
2019-05-29T03:37:04.509Z,10.90
2019-05-29T03:39:38.566Z,11.27
2019-05-29T03:42:11.368Z,10.73
2019-05-29T03:44:44.201Z,11.27
2019-05-29T03:47:17.003Z,12.20
2019-05-29T03:49:49.783Z,11.53
2019-05-29T03:52:23.695Z,13.77
2019-05-29T03:54:56.339Z,13.83
2019-05-29T03:57:29.741Z,11.27
2019-05-29T04:00:04.835Z,14.57
2019-05-29T04:02:38.387Z,13.37
2019-05-29T04:05:11.507Z,14.93
2019-05-29T04:07:44.263Z,14.87
2019-05-29T04:10:27.182Z,14.10
2019-05-29T04:13:00.910Z,14.73
2019-05-29T04:15:36.181Z,15.53
2019-05-29T04:18:09.321Z,14.43
2019-05-29T04:20:44.920Z,13.40
2019-05-29T04:23:19.451Z,9.77
2019-05-29T04:25:57.277Z,12.13
2019-05-29T04:28:32.346Z,8.33
2019-05-29T04:31:06.683Z,10.27
2019-05-29T04:33:39.491Z,12.97
2019-05-29T04:36:13.315Z,13.37
2019-05-29T04:38:46.186Z,12.93
2019-05-29T04:41:18.937Z,13.97
2019-05-29T04:43:51.785Z,13.93
2019-05-29T04:46:27.245Z,14.40
2019-05-29T04:48:59.902Z,11.93
2019-05-29T04:51:33.103Z,11.63
2019-05-29T04:54:05.928Z,13.10
2019-05-29T04:56:40.482Z,11.77
2019-05-29T04:59:14.455Z,11.50
2019-05-29T05:01:47.263Z,11.33
2019-05-29T05:04:21.148Z,9.43
2019-05-29T05:06:53.905Z,9.63
2019-05-29T05:09:26.632Z,10.70
2019-05-29T05:11:59.461Z,9.77
2019-05-29T05:14:32.175Z,6.37
2019-05-29T05:17:04.914Z,8.57
2019-05-29T05:19:38.117Z,8.60
2019-05-29T05:22:11.036Z,7.50
2019-05-29T05:24:45.023Z,6.93
2019-05-29T05:27:17.881Z,6.73
2019-05-29T05:29:50.517Z,7.30
2019-05-29T05:32:23.306Z,5.43
2019-05-29T05:34:56.230Z,4.40
2019-05-29T05:37:29.185Z,4.70
2019-05-29T05:40:03.307Z,3.70
2019-05-29T05:42:37.170Z,3.20
2019-05-29T05:45:10.337Z,3.57
2019-05-29T05:47:53.600Z,3.33
2019-05-29T05:50:18.532Z,3.30
2019-05-29T05:52:51.286Z,3.87
2019-05-29T05:55:25.043Z,3.30
2019-05-29T05:57:57.726Z,3.30
2019-05-29T06:00:33.796Z,3.30
2019-05-29T06:03:07.866Z,3.25
2019-05-29T06:05:40.505Z,3.40
2019-05-29T06:08:13.432Z,3.75
2019-05-29T06:10:47.144Z,3.00
2019-05-29T06:13:19.851Z,3.27
2019-05-29T06:15:52.528Z,3.42
2019-05-29T06:18:26.418Z,3.00
2019-05-29T06:20:59.222Z,3.02
2019-05-29T06:23:32.803Z,2.95
2019-05-29T06:26:05.624Z,2.70
2019-05-29T06:28:39.151Z,2.90
2019-05-29T06:31:11.936Z,3.05
2019-05-29T06:33:44.557Z,2.67
2019-05-29T06:36:17.491Z,2.92
2019-05-29T06:38:50.522Z,2.98
2019-05-29T06:41:23.247Z,2.83
2019-05-29T06:43:57.959Z,3.17
2019-05-29T06:46:32.098Z,2.47
2019-05-29T06:49:06.268Z,2.60
2019-05-29T06:51:39.407Z,2.75
2019-05-29T06:54:12.403Z,2.70
2019-05-29T06:56:45.337Z,2.80
2019-05-29T06:59:18.417Z,2.40
2019-05-29T07:01:51.385Z,2.70
2019-05-29T07:04:25.643Z,2.75
2019-05-29T07:06:58.438Z,2.65
2019-05-29T07:09:31.357Z,2.58
2019-05-29T07:12:05.008Z,2.80
2019-05-29T07:14:38.191Z,2.40
2019-05-29T07:17:11.994Z,2.58
2019-05-29T07:19:57.794Z,2.40
2019-05-29T07:22:20.478Z,2.60
2019-05-29T07:24:53.368Z,2.40
2019-05-29T07:27:27.211Z,2.37
2019-05-29T07:29:59.978Z,2.58
2019-05-29T07:32:32.677Z,2.20
2019-05-29T07:35:05.567Z,2.20
2019-05-29T07:37:39.557Z,2.27
2019-05-29T07:40:13.194Z,1.50
2019-05-29T07:42:53.692Z,1.60
2019-05-29T07:45:20.694Z,1.50
2019-05-29T07:47:53.508Z,1.55
2019-05-29T07:50:26.519Z,2.10
2019-05-29T07:52:59.342Z,1.15
2019-05-29T07:55:32.368Z,1.50
2019-05-29T07:58:05.089Z,1.00
2019-05-29T08:00:59.858Z,1.20
2019-05-29T08:03:12.562Z,1.50
2019-05-29T08:05:50.618Z,1.27
2019-05-29T08:08:19.870Z,1.98
2019-05-29T08:10:52.603Z,2.25
2019-05-29T08:13:25.235Z,1.40
2019-05-29T08:16:02.864Z,1.00
2019-05-29T08:18:32.389Z,1.98
2019-05-29T08:21:06.224Z,0.98
2019-05-29T08:23:40.180Z,1.15
2019-05-29T08:26:13.028Z,1.17
2019-05-29T08:28:46.718Z,1.30
2019-05-29T08:31:19.422Z,0.95
2019-05-29T08:33:51.938Z,0.80
2019-05-29T08:36:24.562Z,1.20
2019-05-29T08:38:57.233Z,1.05
2019-05-29T08:41:29.810Z,1.05
2019-05-29T08:44:02.230Z,0.80
2019-05-29T08:46:34.836Z,0.93
2019-05-29T08:49:07.572Z,0.98
2019-05-29T08:51:40.291Z,2.95
2019-05-29T08:54:23.403Z,0.95
2019-05-29T08:56:48.389Z,0.90
2019-05-29T08:59:21.265Z,1.00
2019-05-29T09:01:55.589Z,1.07
2019-05-29T09:04:28.561Z,0.85
2019-05-29T09:07:01.280Z,0.98
2019-05-29T09:09:34.178Z,0.98
2019-05-29T09:12:06.916Z,0.65
2019-05-29T09:14:39.808Z,1.07
2019-05-29T09:17:14.578Z,0.90
2019-05-29T09:19:47.371Z,0.80
2019-05-29T09:22:20.984Z,0.72
2019-05-29T09:24:53.793Z,0.70
2019-05-29T09:27:26.440Z,0.70
2019-05-29T09:29:59.195Z,0.60
2019-05-29T09:32:48.825Z,1.47
2019-05-29T09:35:07.096Z,0.90
2019-05-29T09:37:39.772Z,0.80
2019-05-29T09:40:16.963Z,0.90
2019-05-29T09:42:49.790Z,0.85
2019-05-29T09:45:23.462Z,0.78
2019-05-29T09:47:56.413Z,0.72
2019-05-29T09:50:46.457Z,0.82
2019-05-29T09:53:04.155Z,0.72
2019-05-29T09:55:37.055Z,0.80
2019-05-29T09:58:09.795Z,0.80
2019-05-29T10:00:42.394Z,0.80
2019-05-29T10:03:15.005Z,0.90
2019-05-29T10:05:47.674Z,0.80
2019-05-29T10:08:20.464Z,0.70
2019-05-29T10:11:01.472Z,0.70
2019-05-29T10:13:27.739Z,0.85
2019-05-29T10:16:00.872Z,0.75
2019-05-29T10:18:33.862Z,0.90
2019-05-29T10:21:06.581Z,0.80
2019-05-29T10:23:39.340Z,1.00
2019-05-29T10:26:12.087Z,0.70
2019-05-29T10:29:01.641Z,1.00
2019-05-29T10:31:19.441Z,0.90
2019-05-29T10:33:52.432Z,0.75
2019-05-29T10:36:25.232Z,0.80
2019-05-29T10:38:58.088Z,0.80
2019-05-29T10:41:30.959Z,0.75
2019-05-29T10:44:04.208Z,0.80
2019-05-29T10:46:36.958Z,0.70
2019-05-29T10:49:09.705Z,0.90
2019-05-29T10:51:59.039Z,0.80
2019-05-29T10:54:18.131Z,0.50
2019-05-29T10:56:50.952Z,1.32
2019-05-29T10:59:23.635Z,0.75
2019-05-29T11:01:56.373Z,0.60
2019-05-29T11:04:29.011Z,1.00
2019-05-29T11:07:01.841Z,1.20
2019-05-29T11:09:44.040Z,1.87
2019-05-29T11:12:09.506Z,0.60
2019-05-29T11:14:42.243Z,0.68
2019-05-29T11:17:14.991Z,0.53
2019-05-29T11:19:47.638Z,0.57
2019-05-29T11:22:26.243Z,0.50
2019-05-29T11:25:18.862Z,0.42
2019-05-29T11:27:33.383Z,0.60
2019-05-29T11:30:06.638Z,0.47
2019-05-29T11:32:41.525Z,0.50
2019-05-29T11:35:17.953Z,0.50
2019-05-29T11:37:50.767Z,0.50
2019-05-29T11:40:23.442Z,0.45
2019-05-29T11:42:56.952Z,2.27
2019-05-29T11:45:30.087Z,0.62
2019-05-29T11:48:05.025Z,0.53
2019-05-29T11:50:37.900Z,0.50
2019-05-29T11:53:10.582Z,0.50
2019-05-29T11:55:43.270Z,0.62
2019-05-29T11:58:30.709Z,0.60
2019-05-29T12:00:52.905Z,0.40
2019-05-29T12:03:25.877Z,0.45
2019-05-29T12:05:59.407Z,0.47
2019-05-29T12:08:33.294Z,0.60
2019-05-29T12:11:07.159Z,0.53
2019-05-29T12:13:40.656Z,0.40
2019-05-29T12:16:15.382Z,0.55
2019-05-29T12:18:48.129Z,0.53
2019-05-29T12:21:20.935Z,0.42
2019-05-29T12:23:54.009Z,0.33
2019-05-29T12:26:26.821Z,0.45
2019-05-29T12:29:08.395Z,0.57
2019-05-29T12:31:35.117Z,0.70
2019-05-29T12:34:18.662Z,8.05
2019-05-29T12:36:43.524Z,1.00
2019-05-29T12:39:17.202Z,0.50
2019-05-29T12:41:49.892Z,0.70
2019-05-29T12:44:22.529Z,1.00
2019-05-29T12:46:55.559Z,4.45
2019-05-29T12:49:28.502Z,0.70
2019-05-29T12:52:02.465Z,0.65
2019-05-29T12:54:36.391Z,0.60
2019-05-29T12:57:09.106Z,0.70
2019-05-29T12:59:44.883Z,0.90
2019-05-29T13:02:17.645Z,1.10
2019-05-29T13:05:07.039Z,0.68
2019-05-29T13:07:25.014Z,1.00
2019-05-29T13:09:58.915Z,0.65
2019-05-29T13:12:31.783Z,1.42
2019-05-29T13:15:05.721Z,0.70
2019-05-29T13:17:38.530Z,0.60
2019-05-29T13:20:20.930Z,0.60
2019-05-29T13:22:46.333Z,0.70
2019-05-29T13:25:19.092Z,0.78
2019-05-29T13:27:51.775Z,0.70
2019-05-29T13:30:24.806Z,0.70
2019-05-29T13:33:02.173Z,0.62
2019-05-29T13:35:32.292Z,0.70
2019-05-29T13:38:05.281Z,0.70
2019-05-29T13:40:38.042Z,0.70
2019-05-29T13:43:15.095Z,0.65
2019-05-29T13:45:45.351Z,0.57
2019-05-29T13:48:18.006Z,0.70
2019-05-29T13:50:50.788Z,0.80
2019-05-29T13:53:24.441Z,0.70
2019-05-29T13:55:57.743Z,0.60
2019-05-29T13:58:30.665Z,0.68
2019-05-29T14:01:04.388Z,0.75
2019-05-29T14:03:38.563Z,0.70
2019-05-29T14:06:11.427Z,0.80
2019-05-29T14:08:44.369Z,0.80
2019-05-29T14:11:17.422Z,0.60
2019-05-29T14:13:51.914Z,0.50
2019-05-29T14:16:24.844Z,0.50
2019-05-29T14:18:57.650Z,0.70
2019-05-29T14:21:30.366Z,6.42
2019-05-29T14:24:20.668Z,0.50
2019-05-29T14:26:38.329Z,0.50
2019-05-29T14:29:11.856Z,0.47
2019-05-29T14:31:44.692Z,0.40
2019-05-29T14:34:20.282Z,0.50
2019-05-29T14:36:53.146Z,0.72
2019-05-29T14:39:26.953Z,0.60
2019-05-29T14:41:59.695Z,0.70
2019-05-29T14:44:32.484Z,0.50
2019-05-29T14:47:05.936Z,0.62
2019-05-29T14:49:38.912Z,0.50
2019-05-29T14:52:12.085Z,0.62
2019-05-29T14:54:46.146Z,0.57
2019-05-29T14:57:25.858Z,0.50
2019-05-29T14:59:55.297Z,0.30
2019-05-29T15:02:28.207Z,0.57
2019-05-29T15:05:00.865Z,0.65
2019-05-29T15:07:33.838Z,0.60
2019-05-29T15:10:19.743Z,0.90
2019-05-29T15:12:42.380Z,0.60
2019-05-29T15:15:18.450Z,0.93
2019-05-29T15:17:51.114Z,0.78
2019-05-29T15:20:26.895Z,0.80
2019-05-29T15:22:59.736Z,0.80
2019-05-29T15:25:34.466Z,0.85
2019-05-29T15:28:08.191Z,1.20
2019-05-29T15:30:43.079Z,0.72
2019-05-29T15:33:17.615Z,0.60
2019-05-29T15:35:50.339Z,0.95
2019-05-29T15:38:23.220Z,0.98
2019-05-29T15:40:55.929Z,1.15
2019-05-29T15:43:28.626Z,1.60
2019-05-29T15:46:01.281Z,1.17
2019-05-29T15:48:36.131Z,1.30
2019-05-29T15:51:10.972Z,1.30
2019-05-29T15:53:44.986Z,1.40
2019-05-29T15:56:27.108Z,1.25
2019-05-29T15:58:53.714Z,1.25
2019-05-29T16:01:26.564Z,1.70
2019-05-29T16:03:59.345Z,8.70
2019-05-29T16:06:31.924Z,1.60
2019-05-29T16:09:08.074Z,1.70
2019-05-29T16:11:40.845Z,1.60
2019-05-29T16:14:14.845Z,1.55
2019-05-29T16:16:47.855Z,1.70
2019-05-29T16:19:22.569Z,2.00
2019-05-29T16:21:55.359Z,1.80
2019-05-29T16:24:28.190Z,1.90
2019-05-29T16:27:08.660Z,1.40
2019-05-29T16:29:36.590Z,1.72
2019-05-29T16:32:09.434Z,1.22
2019-05-29T16:34:42.306Z,1.72
2019-05-29T16:37:17.426Z,1.15
2019-05-29T16:39:50.277Z,1.30
2019-05-29T16:42:24.311Z,1.35
2019-05-29T16:44:57.035Z,1.47
2019-05-29T16:47:29.671Z,1.75
2019-05-29T16:50:02.920Z,1.60
2019-05-29T16:52:35.910Z,1.70
2019-05-29T16:55:09.199Z,1.37
2019-05-29T16:57:43.919Z,1.50
2019-05-29T17:00:19.573Z,1.20
2019-05-29T17:02:52.506Z,2.00
2019-05-29T17:05:27.231Z,1.30
2019-05-29T17:08:00.018Z,1.60
2019-05-29T17:10:36.489Z,1.50
2019-05-29T17:13:09.312Z,1.25
2019-05-29T17:15:42.045Z,1.65
2019-05-29T17:18:14.816Z,2.33
2019-05-29T17:20:47.894Z,8.20
2019-05-29T17:23:21.093Z,1.32
2019-05-29T17:26:09.250Z,1.20
2019-05-29T17:28:28.663Z,1.40
2019-05-29T17:31:02.715Z,1.07
2019-05-29T17:33:35.663Z,1.30
2019-05-29T17:36:08.613Z,1.25
2019-05-29T17:38:41.675Z,1.45
2019-05-29T17:41:15.224Z,1.22
2019-05-29T17:43:48.176Z,1.50
2019-05-29T17:46:21.779Z,1.55
2019-05-29T17:48:56.368Z,1.40
2019-05-29T17:51:29.171Z,1.62
2019-05-29T17:54:01.833Z,2.67
2019-05-29T17:56:36.941Z,1.52
2019-05-29T17:59:10.832Z,1.70
2019-05-29T18:01:45.252Z,2.20
2019-05-29T18:04:18.161Z,1.50
2019-05-29T18:06:50.944Z,1.67
2019-05-29T18:09:27.101Z,1.50
2019-05-29T18:11:58.593Z,1.02
2019-05-29T18:14:32.659Z,1.60
2019-05-29T18:17:07.086Z,1.27
2019-05-29T18:19:39.978Z,1.20
2019-05-29T18:22:12.691Z,1.47
2019-05-29T18:24:45.500Z,1.30
2019-05-29T18:27:18.405Z,1.32
2019-05-29T18:30:03.961Z,1.40
2019-05-29T18:32:39.168Z,1.40
2019-05-29T18:35:12.145Z,1.40
2019-05-29T18:37:44.815Z,1.30
2019-05-29T18:40:17.857Z,1.50
2019-05-29T18:42:50.759Z,1.62
2019-05-29T18:45:25.071Z,1.80
2019-05-29T18:47:58.124Z,1.30
2019-05-29T18:50:32.825Z,1.45
2019-05-29T18:53:05.964Z,1.52
2019-05-29T18:55:38.757Z,1.50
2019-05-29T18:58:11.626Z,1.75
2019-05-29T19:00:47.179Z,1.75
2019-05-29T19:03:21.290Z,1.62
2019-05-29T19:05:54.133Z,1.72
2019-05-29T19:08:27.783Z,1.40
2019-05-29T19:11:01.686Z,1.65
2019-05-29T19:13:34.575Z,1.22
2019-05-29T19:16:09.106Z,1.45
2019-05-29T19:18:41.981Z,1.60
2019-05-29T19:21:16.598Z,1.40
2019-05-29T19:23:49.499Z,1.37
2019-05-29T19:26:24.757Z,1.62
2019-05-29T19:28:59.488Z,1.60
2019-05-29T19:31:33.344Z,1.80
2019-05-29T19:34:06.492Z,2.00
2019-05-29T19:36:39.277Z,2.00
2019-05-29T19:39:12.207Z,3.08
2019-05-29T19:41:44.889Z,3.10
2019-05-29T19:44:17.901Z,20.10
2019-05-29T19:46:53.950Z,2.80
2019-05-29T19:49:27.288Z,2.50
2019-05-29T19:52:00.047Z,2.92
2019-05-29T19:54:35.749Z,2.12
2019-05-29T19:57:08.673Z,2.95
2019-05-29T19:59:41.603Z,2.00
2019-05-29T20:02:14.657Z,2.27
2019-05-29T20:04:47.505Z,2.33
2019-05-29T20:07:20.174Z,3.00
2019-05-29T20:09:54.340Z,2.45
2019-05-29T20:12:29.273Z,2.50
2019-05-29T20:15:03.805Z,2.50
2019-05-29T20:17:38.331Z,2.35
2019-05-29T20:20:11.402Z,2.65
2019-05-29T20:22:44.260Z,1.92
2019-05-29T20:25:17.109Z,1.87
2019-05-29T20:28:03.385Z,2.10
2019-05-29T20:30:25.553Z,2.00
2019-05-29T20:32:58.441Z,2.00
2019-05-29T20:35:32.762Z,2.17
2019-05-29T20:38:06.625Z,2.10
2019-05-29T20:40:41.389Z,2.37
2019-05-29T20:43:14.097Z,2.00
2019-05-29T20:45:47.840Z,1.90
2019-05-29T20:48:20.591Z,2.35
2019-05-29T20:50:53.507Z,2.95
2019-05-29T20:53:29.118Z,2.65
2019-05-29T20:56:03.170Z,2.30
2019-05-29T20:58:35.987Z,2.40
2019-05-29T21:01:08.674Z,2.35
2019-05-29T21:03:42.496Z,2.50
2019-05-29T21:06:15.270Z,5.10
2019-05-29T21:08:48.014Z,3.52
2019-05-29T21:11:20.681Z,2.60
2019-05-29T21:13:53.300Z,2.20
2019-05-29T21:16:25.983Z,2.08
2019-05-29T21:18:58.914Z,2.05
2019-05-29T21:21:31.501Z,2.10
2019-05-29T21:24:04.253Z,2.22
2019-05-29T21:26:37.073Z,2.35
2019-05-29T21:29:09.979Z,3.10
2019-05-29T21:31:43.711Z,3.40
2019-05-29T21:34:17.766Z,3.00
2019-05-29T21:36:50.688Z,2.33
2019-05-29T21:39:23.369Z,2.50
2019-05-29T21:41:57.799Z,2.30
2019-05-29T21:44:30.473Z,2.62
2019-05-29T21:47:03.052Z,2.02
2019-05-29T21:49:37.154Z,2.37
2019-05-29T21:52:10.043Z,1.77
2019-05-29T21:54:43.627Z,2.10
2019-05-29T21:57:17.542Z,2.20
2019-05-29T21:59:50.279Z,2.17
2019-05-29T22:02:22.878Z,2.30
2019-05-29T22:04:55.779Z,1.82
2019-05-29T22:07:30.304Z,2.20
2019-05-29T22:10:04.126Z,2.05
2019-05-29T22:12:36.998Z,2.30
2019-05-29T22:15:11.775Z,2.58
2019-05-29T22:17:44.670Z,2.30
2019-05-29T22:20:17.783Z,1.85
2019-05-29T22:22:52.848Z,2.20
2019-05-29T22:25:25.756Z,2.62
2019-05-29T22:27:59.541Z,2.83
2019-05-29T22:30:32.631Z,2.52
2019-05-29T22:33:05.767Z,2.55
2019-05-29T22:35:38.683Z,2.52
2019-05-29T22:38:11.657Z,2.52
2019-05-29T22:40:44.479Z,2.50
2019-05-29T22:43:17.177Z,2.20
2019-05-29T22:45:49.800Z,2.65
2019-05-29T22:48:22.371Z,2.42
2019-05-29T22:50:55.739Z,2.52
2019-05-29T22:53:28.570Z,2.87
2019-05-29T22:56:02.044Z,2.25
2019-05-29T22:58:34.730Z,2.20
2019-05-29T23:01:07.529Z,2.35
2019-05-29T23:03:42.134Z,2.60
2019-05-29T23:06:15.077Z,2.30
2019-05-29T23:08:47.911Z,2.20
2019-05-29T23:11:21.739Z,2.52
2019-05-29T23:13:54.481Z,2.60
2019-05-29T23:16:29.066Z,2.65
2019-05-29T23:19:02.802Z,2.90
2019-05-29T23:21:37.423Z,2.10
2019-05-29T23:24:11.165Z,2.42
2019-05-29T23:26:43.876Z,2.40
2019-05-29T23:29:16.497Z,2.17
2019-05-29T23:31:50.372Z,2.40
2019-05-29T23:34:23.094Z,2.30
2019-05-29T23:36:57.048Z,2.47
2019-05-29T23:39:29.945Z,2.10
2019-05-29T23:42:03.642Z,2.22
2019-05-29T23:44:39.464Z,2.42
2019-05-29T23:47:12.208Z,2.25
2019-05-29T23:49:45.010Z,2.30
2019-05-29T23:52:17.780Z,2.58
2019-05-29T23:54:50.632Z,2.33
2019-05-29T23:57:23.405Z,2.20
